Time;durP1;ratioP1;P1;durP2;ratioP2;P2;SDS_P1;SDS_P2;PMS_P1;PMS_P2;Temp;Humidity;BMP_temperature;BMP_pressure;BME280_temperature;BME280_humidity;BME280_pressure;Samples;Min_cycle;Max_cycle;Signal;HPM_P1;HPM_P2
2021/10/25 08:40:58;;;;;;;14.20;7.32;;;;;;;;;;6247638;23;20010;-79
2021/10/25 08:43:23;;;;;;;7.65;6.60;;;;;;;;;;6246126;23;20323;-79
2021/10/25 08:45:51;;;;;;;7.40;6.30;;;;;;;;;;6247905;23;20023;-78
2021/10/25 08:48:18;;;;;;;8.35;6.70;;;;;;;;;;6245970;23;20331;-78
2021/10/25 08:50:43;;;;;;;9.38;6.30;;;;;;;;;;6247521;22;20008;-77
2021/10/25 08:53:10;;;;;;;9.80;6.45;;;;;;;;;;6247740;22;20347;-77
2021/10/25 08:55:35;;;;;;;11.18;6.35;;;;;;;;;;6247520;22;20000;-78
2021/10/25 08:58:02;;;;;;;7.60;4.75;;;;;;;;;;6247583;22;20008;-78
2021/10/25 09:00:41;;;;;;;7.38;5.30;;;;;;;;;;6247795;22;20000;-79
2021/10/25 09:03:07;;;;;;;7.97;5.20;;;;;;;;;;6247491;22;20004;-78
2021/10/25 09:05:33;;;;;;;8.80;4.80;;;;;;;;;;6247334;22;20082;-78
2021/10/25 09:08:02;;;;;;;8.07;5.22;;;;;;;;;;6247148;22;20000;-79
2021/10/25 09:10:30;;;;;;;8.67;5.13;;;;;;;;;;6247663;22;20015;-79
2021/10/25 09:12:58;;;;;;;7.10;5.15;;;;;;;;;;6247549;22;20599;-78
2021/10/25 09:15:26;;;;;;;7.00;5.82;;;;;;;;;;6247636;22;20007;-78
2021/10/25 09:17:52;;;;;;;8.02;5.68;;;;;;;;;;6247174;22;20007;-78
2021/10/25 09:20:17;;;;;;;6.18;5.32;;;;;;;;;;6247310;22;20000;-77
2021/10/25 09:22:44;;;;;;;6.97;4.75;;;;;;;;;;6247320;23;20012;-79
2021/10/25 09:25:09;;;;;;;7.30;5.03;;;;;;;;;;6247000;22;19996;-79
2021/10/25 09:27:42;;;;;;;6.60;4.75;;;;;;;;;;6247453;22;20004;-79
2021/10/25 09:30:16;;;;;;;6.38;5.40;;;;;;;;;;6247378;22;20035;-80
2021/10/25 09:32:46;;;;;;;6.60;4.80;;;;;;;;;;6247150;22;20008;-79
2021/10/25 09:35:30;;;;;;;7.22;4.55;;;;;;;;;;6247087;22;20000;-79
2021/10/25 09:38:04;;;;;;;6.70;4.60;;;;;;;;;;6247124;22;20231;-79
2021/10/25 09:41:02;;;;;;;4.97;4.10;;;;;;;;;;6247094;22;20000;-79
2021/10/25 09:46:12;;;;;;;5.80;5.20;;;;;;;;;;6257652;22;20019;-79
2021/10/25 09:51:23;;;;;;;7.95;4.40;;;;;;;;;;6247163;23;20426;-79
2021/10/25 09:53:59;;;;;;;7.07;4.32;;;;;;;;;;6246899;22;20012;-79
2021/10/25 09:56:50;;;;;;;6.20;4.22;;;;;;;;;;6247286;22;20090;-79
2021/10/25 09:59:36;;;;;;;5.85;3.97;;;;;;;;;;6246857;22;20004;-78
2021/10/25 10:02:03;;;;;;;5.72;4.60;;;;;;;;;;6246810;22;20000;-79
2021/10/25 10:04:29;;;;;;;6.78;4.82;;;;;;;;;;6246679;22;20004;-79
2021/10/25 10:06:57;;;;;;;6.50;4.60;;;;;;;;;;6245404;23;20406;-78
2021/10/25 10:09:23;;;;;;;5.53;4.38;;;;;;;;;;6246796;22;20001;-80
2021/10/25 10:11:48;;;;;;;5.05;4.43;;;;;;;;;;6246818;23;20011;-79
2021/10/25 10:14:14;;;;;;;6.15;4.25;;;;;;;;;;6246679;22;20000;-81
2021/10/25 10:16:44;;;;;;;7.95;4.20;;;;;;;;;;6247090;22;20077;-79
2021/10/25 10:19:13;;;;;;;4.47;4.07;;;;;;;;;;6246839;22;20003;-83
2021/10/25 10:21:40;;;;;;;4.63;4.00;;;;;;;;;;6246783;22;20004;-80
2021/10/25 10:24:09;;;;;;;4.35;3.83;;;;;;;;;;6246851;22;20363;-79
2021/10/25 10:26:37;;;;;;;4.35;3.97;;;;;;;;;;6246582;22;20092;-79
2021/10/25 10:29:11;;;;;;;4.45;4.05;;;;;;;;;;6246389;22;20011;-81
2021/10/25 10:31:36;;;;;;;4.88;4.07;;;;;;;;;;6246362;22;20139;-80
2021/10/25 10:34:12;;;;;;;4.32;3.92;;;;;;;;;;6246624;23;20017;-82
2021/10/25 10:36:54;;;;;;;4.85;3.97;;;;;;;;;;6247008;22;20000;-79
2021/10/25 10:39:25;;;;;;;6.13;3.60;;;;;;;;;;6244795;23;20420;-78
2021/10/25 10:41:50;;;;;;;4.95;4.00;;;;;;;;;;6246504;22;20046;-80
2021/10/25 10:44:18;;;;;;;4.40;3.97;;;;;;;;;;6246573;22;20427;-79
2021/10/25 10:46:54;;;;;;;4.57;3.60;;;;;;;;;;6246388;22;20046;-82
2021/10/25 10:49:30;;;;;;;4.18;3.38;;;;;;;;;;6246398;22;20079;-78
2021/10/25 10:52:34;;;;;;;5.05;3.13;;;;;;;;;;6246517;22;20008;-78
2021/10/25 10:55:20;;;;;;;3.50;3.20;;;;;;;;;;6246360;22;20368;-78
2021/10/25 11:00:39;;;;;;;3.22;2.92;;;;;;;;;;6257142;22;20022;-78
2021/10/25 11:03:10;;;;;;;7.05;3.20;;;;;;;;;;6244887;23;20000;-78
2021/10/25 11:05:41;;;;;;;3.75;3.20;;;;;;;;;;6246293;22;20028;-83
2021/10/25 11:08:24;;;;;;;4.20;3.50;;;;;;;;;;6246459;22;20007;-78
2021/10/25 11:11:06;;;;;;;3.70;3.10;;;;;;;;;;6246176;22;20004;-78
2021/10/25 11:13:35;;;;;;;4.78;3.20;;;;;;;;;;6246406;22;20004;-78
2021/10/25 11:16:19;;;;;;;4.35;3.40;;;;;;;;;;6244530;23;20004;-78
2021/10/25 11:18:48;;;;;;;3.90;3.17;;;;;;;;;;6246157;22;20416;-78
2021/10/25 11:21:35;;;;;;;3.85;2.75;;;;;;;;;;6246147;22;20054;-79
2021/10/25 11:24:10;;;;;;;5.00;2.90;;;;;;;;;;6246146;22;20081;-78
2021/10/25 11:26:46;;;;;;;3.92;2.67;;;;;;;;;;6246120;22;20419;-78
2021/10/25 11:29:13;;;;;;;5.38;3.22;;;;;;;;;;6246289;22;20008;-78
2021/10/25 11:31:48;;;;;;;4.55;3.03;;;;;;;;;;6244184;23;20041;-80
2021/10/25 11:34:21;;;;;;;4.43;3.33;;;;;;;;;;6246065;23;20444;-77
2021/10/25 11:37:09;;;;;;;4.55;3.35;;;;;;;;;;6246273;22;20027;-78
2021/10/25 11:42:28;;;;;;;9.02;3.47;;;;;;;;;;6246383;22;20015;-78
2021/10/25 11:44:59;;;;;;;6.43;3.05;;;;;;;;;;6246273;22;20087;-78
2021/10/25 17:04:33;;;;;;;5.53;3.85;;;;;;;;;;6184880;23;20028;-90
2021/10/25 17:09:45;;;;;;;4.43;3.72;;;;;;;;;;6255300;22;20011;-81
2021/10/25 17:12:11;;;;;;;5.20;4.03;;;;;;;;;;6247847;22;20004;-82
2021/10/25 17:14:41;;;;;;;4.63;4.07;;;;;;;;;;6247254;22;20657;-82
2021/10/25 17:17:06;;;;;;;5.63;4.65;;;;;;;;;;6247900;22;20004;-82
2021/10/25 17:19:33;;;;;;;6.00;3.40;;;;;;;;;;6247647;23;20077;-81
2021/10/25 17:22:05;;;;;;;4.85;3.90;;;;;;;;;;6247621;22;20370;-82
2021/10/25 17:24:32;;;;;;;5.40;4.00;;;;;;;;;;6247233;22;20007;-80
2021/10/25 17:26:57;;;;;;;4.78;3.70;;;;;;;;;;6247383;22;20370;-79
2021/10/25 17:29:23;;;;;;;7.00;4.20;;;;;;;;;;6247262;22;20000;-80
2021/10/25 17:31:50;;;;;;;5.32;3.78;;;;;;;;;;6247173;22;20071;-79
2021/10/25 17:34:17;;;;;;;5.88;4.03;;;;;;;;;;6247124;22;20007;-81
2021/10/25 17:36:44;;;;;;;5.28;3.78;;;;;;;;;;6247477;22;20014;-80
2021/10/25 17:39:10;;;;;;;6.43;4.82;;;;;;;;;;6247332;22;20000;-79
2021/10/25 17:41:36;;;;;;;106.80;50.10;;;;;;;;;;6247267;22;20062;-80
2021/10/25 17:44:03;;;;;;;10.00;6.07;;;;;;;;;;6247487;22;20000;-83
2021/10/25 17:46:29;;;;;;;6.22;4.28;;;;;;;;;;6247663;22;20008;-84
2021/10/25 17:48:56;;;;;;;7.70;5.50;;;;;;;;;;6248045;22;20154;-82
2021/10/25 17:51:24;;;;;;;6.70;5.53;;;;;;;;;;6248803;22;20006;-82
2021/10/25 17:53:50;;;;;;;7.80;5.90;;;;;;;;;;6246219;23;20066;-82
2021/10/25 17:56:16;;;;;;;7.90;5.78;;;;;;;;;;6247276;22;20415;-80
2021/10/25 17:58:41;;;;;;;5.60;4.95;;;;;;;;;;6247126;22;20398;-81
2021/10/25 18:01:07;;;;;;;8.95;4.75;;;;;;;;;;6247026;22;20040;-79
2021/10/25 18:03:35;;;;;;;6.18;3.90;;;;;;;;;;6247491;22;20000;-81
2021/10/25 18:06:01;;;;;;;4.97;3.70;;;;;;;;;;6247433;22;20435;-79
2021/10/25 18:08:28;;;;;;;8.38;4.40;;;;;;;;;;6245425;23;20008;-79
2021/10/25 18:10:54;;;;;;;8.15;5.68;;;;;;;;;;6246796;22;20008;-77
2021/10/25 18:13:22;;;;;;;9.10;5.88;;;;;;;;;;6245287;23;20027;-79
2021/10/25 18:15:50;;;;;;;7.07;5.70;;;;;;;;;;6246921;22;20071;-78
2021/10/25 18:18:17;;;;;;;5.43;4.85;;;;;;;;;;6246792;22;20050;-79
2021/10/25 18:20:48;;;;;;;4.93;4.13;;;;;;;;;;6246854;22;20004;-78
2021/10/25 18:23:14;;;;;;;5.13;3.65;;;;;;;;;;6246844;22;20058;-80
2021/10/25 18:25:40;;;;;;;6.05;5.03;;;;;;;;;;6246714;22;20070;-78
2021/10/25 18:28:06;;;;;;;6.05;4.32;;;;;;;;;;6246654;22;20004;-77
2021/10/25 18:30:34;;;;;;;7.28;4.95;;;;;;;;;;6246736;22;20420;-76
2021/10/25 18:33:00;;;;;;;5.90;4.68;;;;;;;;;;6246741;22;20004;-78
2021/10/25 18:35:26;;;;;;;5.85;4.13;;;;;;;;;;6246586;22;20004;-78
2021/10/25 18:37:52;;;;;;;4.85;3.70;;;;;;;;;;6245238;23;20443;-78
2021/10/25 18:40:19;;;;;;;3.83;3.53;;;;;;;;;;6246528;22;20004;-77
2021/10/25 18:42:44;;;;;;;6.90;4.55;;;;;;;;;;6247274;22;20004;-78
2021/10/25 18:45:11;;;;;;;6.05;4.10;;;;;;;;;;6244826;23;20379;-77
2021/10/25 18:47:42;;;;;;;7.55;5.25;;;;;;;;;;6246510;22;20058;-78
2021/10/25 18:50:09;;;;;;;5.90;5.28;;;;;;;;;;6244966;23;20330;-77
2021/10/25 18:52:35;;;;;;;7.65;6.22;;;;;;;;;;6246546;22;20028;-78
2021/10/25 18:55:00;;;;;;;11.60;8.60;;;;;;;;;;6246606;22;20103;-78
2021/10/25 18:57:26;;;;;;;12.90;8.95;;;;;;;;;;6246405;22;20304;-77
2021/10/25 18:59:53;;;;;;;16.08;10.27;;;;;;;;;;6246556;22;20028;-78
2021/10/25 19:02:19;;;;;;;14.02;9.98;;;;;;;;;;6246306;22;20050;-77
2021/10/25 19:04:48;;;;;;;15.85;9.63;;;;;;;;;;6246335;22;20000;-77
2021/10/25 19:07:13;;;;;;;12.68;8.68;;;;;;;;;;6246431;22;20000;-77
2021/10/25 19:09:38;;;;;;;11.27;7.45;;;;;;;;;;6246332;22;20008;-77
2021/10/25 19:12:04;;;;;;;11.57;7.15;;;;;;;;;;6246501;22;20079;-77
2021/10/25 19:14:36;;;;;;;8.43;5.65;;;;;;;;;;6246509;22;20000;-77
2021/10/25 19:17:02;;;;;;;6.75;5.38;;;;;;;;;;6244802;23;20382;-76
2021/10/25 19:19:28;;;;;;;8.85;6.13;;;;;;;;;;6244974;23;20004;-75
2021/10/25 19:21:53;;;;;;;11.02;7.10;;;;;;;;;;6246142;23;20361;-76
2021/10/25 19:24:19;;;;;;;7.20;4.60;;;;;;;;;;6246298;22;20331;-76
2021/10/25 19:26:44;;;;;;;10.85;6.75;;;;;;;;;;6246419;22;20324;-75
2021/10/25 19:29:12;;;;;;;7.20;5.30;;;;;;;;;;6246646;22;20008;-76
2021/10/25 19:31:39;;;;;;;5.13;4.40;;;;;;;;;;6246461;22;20004;-76
2021/10/25 19:34:05;;;;;;;7.28;4.57;;;;;;;;;;6246521;22;20374;-77
2021/10/25 19:36:34;;;;;;;6.63;4.53;;;;;;;;;;6246225;22;20001;-76
2021/10/25 19:39:00;;;;;;;6.53;4.55;;;;;;;;;;6246608;22;20378;-75
2021/10/25 19:41:27;;;;;;;6.32;4.22;;;;;;;;;;6246308;22;19996;-78
2021/10/25 19:43:53;;;;;;;6.93;4.53;;;;;;;;;;6244631;23;20091;-77
2021/10/25 19:46:19;;;;;;;6.15;4.82;;;;;;;;;;6246173;22;20016;-76
2021/10/25 19:48:45;;;;;;;9.32;5.82;;;;;;;;;;6246295;22;20490;-76
2021/10/25 19:51:10;;;;;;;9.45;5.50;;;;;;;;;;6245307;22;20331;-76
2021/10/25 19:53:37;;;;;;;6.25;4.40;;;;;;;;;;6245697;22;20105;-78
2021/10/25 19:56:03;;;;;;;8.43;5.20;;;;;;;;;;6246704;22;20008;-76
2021/10/25 19:58:31;;;;;;;9.00;5.38;;;;;;;;;;6245813;22;20020;-75
2021/10/25 20:00:57;;;;;;;7.30;5.10;;;;;;;;;;6246185;22;20065;-77
2021/10/25 20:03:24;;;;;;;9.27;5.78;;;;;;;;;;6245970;22;20000;-78
2021/10/25 20:05:49;;;;;;;7.78;5.40;;;;;;;;;;6244374;23;20008;-76
2021/10/25 20:08:17;;;;;;;10.68;6.90;;;;;;;;;;6246304;22;20004;-76
2021/10/25 20:10:43;;;;;;;14.48;9.73;;;;;;;;;;6244838;23;20000;-77
2021/10/25 20:13:08;;;;;;;11.45;6.25;;;;;;;;;;6247958;22;20339;-75
2021/10/25 20:15:34;;;;;;;12.95;7.20;;;;;;;;;;6247647;23;19996;-75
2021/10/25 20:18:00;;;;;;;10.60;7.15;;;;;;;;;;6247889;22;20380;-77
2021/10/25 20:20:25;;;;;;;13.85;8.13;;;;;;;;;;6247821;22;20062;-74
2021/10/25 20:22:51;;;;;;;11.63;6.55;;;;;;;;;;6247710;22;20004;-75
2021/10/25 20:25:16;;;;;;;8.07;5.43;;;;;;;;;;6247579;23;20055;-76
2021/10/25 20:27:42;;;;;;;6.20;5.10;;;;;;;;;;6247683;22;20504;-76
2021/10/25 20:30:08;;;;;;;8.45;5.65;;;;;;;;;;6248097;22;20004;-76
2021/10/25 20:32:34;;;;;;;13.18;11.75;;;;;;;;;;6247758;23;20039;-76
2021/10/25 20:35:00;;;;;;;18.65;16.80;;;;;;;;;;6247589;22;20008;-75
2021/10/25 20:37:25;;;;;;;7.82;5.80;;;;;;;;;;6247605;22;20008;-74
2021/10/25 20:39:52;;;;;;;8.55;4.97;;;;;;;;;;6246093;23;20065;-76
2021/10/25 20:42:18;;;;;;;17.02;11.38;;;;;;;;;;6247735;22;20033;-75
2021/10/25 20:44:44;;;;;;;5.15;3.65;;;;;;;;;;6247699;22;20007;-76
2021/10/25 20:47:09;;;;;;;4.25;3.35;;;;;;;;;;6246169;23;20004;-75
2021/10/25 20:49:35;;;;;;;6.35;3.95;;;;;;;;;;6247678;22;20004;-75
2021/10/25 20:52:00;;;;;;;5.22;4.03;;;;;;;;;;6247644;23;20012;-76
2021/10/25 20:54:26;;;;;;;5.53;3.53;;;;;;;;;;6247783;23;20355;-75
2021/10/25 20:56:51;;;;;;;6.10;4.55;;;;;;;;;;6247712;22;20452;-74
2021/10/25 20:59:17;;;;;;;9.45;5.72;;;;;;;;;;6247621;22;20040;-75
2021/10/25 21:01:43;;;;;;;11.68;10.05;;;;;;;;;;6245901;23;20015;-74
2021/10/25 21:04:09;;;;;;;28.63;25.92;;;;;;;;;;6247561;22;20004;-74
2021/10/25 21:06:34;;;;;;;19.55;15.45;;;;;;;;;;6247799;22;20012;-75
2021/10/25 21:09:00;;;;;;;15.90;11.98;;;;;;;;;;6247714;22;20016;-74
2021/10/25 21:11:26;;;;;;;11.65;8.88;;;;;;;;;;6247639;22;20423;-75
2021/10/25 21:13:55;;;;;;;31.25;12.52;;;;;;;;;;6247260;22;20420;-75
2021/10/25 21:16:31;;;;;;;19.10;9.13;;;;;;;;;;6245873;23;20431;-74
2021/10/25 21:19:00;;;;;;;13.35;8.98;;;;;;;;;;6247571;22;20040;-76
2021/10/25 21:21:27;;;;;;;11.35;7.68;;;;;;;;;;6247238;22;20069;-74
2021/10/25 21:23:53;;;;;;;11.88;8.85;;;;;;;;;;6247621;22;20006;-75
2021/10/25 21:26:19;;;;;;;13.80;10.15;;;;;;;;;;6247355;22;20032;-76
2021/10/25 21:28:49;;;;;;;10.38;9.27;;;;;;;;;;6247172;22;20431;-74
2021/10/25 21:31:16;;;;;;;8.27;6.03;;;;;;;;;;6247246;22;20027;-75
2021/10/25 21:33:42;;;;;;;7.38;5.90;;;;;;;;;;6247118;22;20063;-75
2021/10/25 21:36:07;;;;;;;6.50;5.35;;;;;;;;;;6247392;22;20012;-77
2021/10/25 21:38:33;;;;;;;8.73;4.85;;;;;;;;;;6247561;22;20083;-75
2021/10/25 21:40:58;;;;;;;7.13;5.50;;;;;;;;;;6247432;22;20004;-74
2021/10/25 21:43:24;;;;;;;7.68;5.38;;;;;;;;;;6246969;22;20008;-74
2021/10/25 21:45:49;;;;;;;5.53;4.68;;;;;;;;;;6246878;22;20004;-74
2021/10/25 21:48:15;;;;;;;7.28;5.30;;;;;;;;;;6247132;22;20000;-75
2021/10/25 21:50:40;;;;;;;6.47;5.40;;;;;;;;;;6247491;23;20000;-78
2021/10/25 21:53:06;;;;;;;4.78;4.07;;;;;;;;;;6247294;23;20005;-79
2021/10/25 21:55:31;;;;;;;5.70;4.47;;;;;;;;;;6246990;22;20039;-78
2021/10/25 21:57:58;;;;;;;5.78;4.10;;;;;;;;;;6246924;23;20062;-78
2021/10/25 22:00:27;;;;;;;6.57;4.18;;;;;;;;;;6245298;23;20054;-78
2021/10/25 22:02:53;;;;;;;;;;;;;;;;;;6245671;23;20309;-75
2021/10/25 22:05:18;;;;;;;5.50;3.38;;;;;;;;;;6246873;22;20329;-75
2021/10/25 22:07:44;;;;;;;4.55;3.70;;;;;;;;;;6246957;22;20059;-77
2021/10/25 22:10:10;;;;;;;5.70;4.47;;;;;;;;;;6246954;22;20007;-77
2021/10/25 22:12:35;;;;;;;6.03;4.00;;;;;;;;;;6246692;22;20004;-75
2021/10/25 22:15:06;;;;;;;6.50;4.20;;;;;;;;;;6247158;22;20042;-76
2021/10/25 22:17:31;;;;;;;5.07;4.10;;;;;;;;;;6246719;22;20004;-77
